sensor_id;sensor_type;location;lat;lon;timestamp;P1;durP1;ratioP1;P2;durP2;ratioP2
61915;SDS011;47868;51.326;6.550;2024-01-25T00:01:52;53.92;;;10.35;;
61915;SDS011;47868;51.326;6.550;2024-01-25T00:04:19;41.50;;;10.55;;
61915;SDS011;47868;51.326;6.550;2024-01-25T00:06:45;48.95;;;9.52;;
61915;SDS011;47868;51.326;6.550;2024-01-25T00:09:11;44.55;;;10.30;;
61915;SDS011;47868;51.326;6.550;2024-01-25T00:11:39;41.28;;;10.55;;
61915;SDS011;47868;51.326;6.550;2024-01-25T00:14:05;45.03;;;9.68;;
61915;SDS011;47868;51.326;6.550;2024-01-25T00:16:31;38.83;;;10.10;;
61915;SDS011;47868;51.326;6.550;2024-01-25T00:18:57;47.05;;;10.65;;
61915;SDS011;47868;51.326;6.550;2024-01-25T00:21:23;41.70;;;9.57;;
61915;SDS011;47868;51.326;6.550;2024-01-25T00:23:50;36.25;;;9.13;;
61915;SDS011;47868;51.326;6.550;2024-01-25T00:26:16;43.42;;;10.25;;
61915;SDS011;47868;51.326;6.550;2024-01-25T00:28:42;38.88;;;9.23;;
61915;SDS011;47868;51.326;6.550;2024-01-25T00:31:08;37.28;;;9.43;;
61915;SDS011;47868;51.326;6.550;2024-01-25T00:33:34;42.97;;;9.20;;
61915;SDS011;47868;51.326;6.550;2024-01-25T00:36:00;38.30;;;10.00;;
61915;SDS011;47868;51.326;6.550;2024-01-25T00:38:26;48.28;;;9.57;;
61915;SDS011;47868;51.326;6.550;2024-01-25T00:40:52;38.28;;;9.10;;
61915;SDS011;47868;51.326;6.550;2024-01-25T00:43:19;46.80;;;10.27;;
61915;SDS011;47868;51.326;6.550;2024-01-25T00:45:45;39.25;;;9.43;;
61915;SDS011;47868;51.326;6.550;2024-01-25T00:48:11;37.85;;;8.73;;
61915;SDS011;47868;51.326;6.550;2024-01-25T00:50:37;39.38;;;9.90;;
61915;SDS011;47868;51.326;6.550;2024-01-25T00:53:03;34.72;;;8.70;;
61915;SDS011;47868;51.326;6.550;2024-01-25T00:55:29;48.30;;;9.68;;
61915;SDS011;47868;51.326;6.550;2024-01-25T00:57:56;40.88;;;9.45;;
61915;SDS011;47868;51.326;6.550;2024-01-25T01:00:22;38.97;;;9.52;;
61915;SDS011;47868;51.326;6.550;2024-01-25T01:02:48;43.92;;;10.02;;
61915;SDS011;47868;51.326;6.550;2024-01-25T01:05:14;40.38;;;10.45;;
61915;SDS011;47868;51.326;6.550;2024-01-25T01:07:41;38.03;;;10.30;;
61915;SDS011;47868;51.326;6.550;2024-01-25T01:10:07;40.83;;;9.30;;
61915;SDS011;47868;51.326;6.550;2024-01-25T01:12:34;38.95;;;8.90;;
61915;SDS011;47868;51.326;6.550;2024-01-25T01:15:00;37.08;;;9.40;;
61915;SDS011;47868;51.326;6.550;2024-01-25T01:17:26;36.95;;;8.80;;
61915;SDS011;47868;51.326;6.550;2024-01-25T01:19:52;39.95;;;9.90;;
61915;SDS011;47868;51.326;6.550;2024-01-25T01:22:18;37.30;;;8.82;;
61915;SDS011;47868;51.326;6.550;2024-01-25T01:24:44;45.85;;;10.13;;
61915;SDS011;47868;51.326;6.550;2024-01-25T01:27:10;46.35;;;10.50;;
61915;SDS011;47868;51.326;6.550;2024-01-25T01:29:37;38.33;;;9.40;;
61915;SDS011;47868;51.326;6.550;2024-01-25T01:32:03;41.58;;;9.77;;
61915;SDS011;47868;51.326;6.550;2024-01-25T01:34:29;44.67;;;10.38;;
61915;SDS011;47868;51.326;6.550;2024-01-25T01:36:55;41.28;;;10.13;;
61915;SDS011;47868;51.326;6.550;2024-01-25T01:39:21;50.08;;;10.73;;
61915;SDS011;47868;51.326;6.550;2024-01-25T01:41:47;39.58;;;10.05;;
61915;SDS011;47868;51.326;6.550;2024-01-25T01:44:14;40.13;;;9.80;;
61915;SDS011;47868;51.326;6.550;2024-01-25T01:46:40;51.75;;;9.95;;
61915;SDS011;47868;51.326;6.550;2024-01-25T01:49:07;40.70;;;10.02;;
61915;SDS011;47868;51.326;6.550;2024-01-25T01:51:34;40.45;;;9.02;;
61915;SDS011;47868;51.326;6.550;2024-01-25T01:54:01;37.20;;;8.80;;
61915;SDS011;47868;51.326;6.550;2024-01-25T01:56:31;42.00;;;8.70;;
61915;SDS011;47868;51.326;6.550;2024-01-25T01:58:57;36.60;;;9.30;;
61915;SDS011;47868;51.326;6.550;2024-01-25T02:01:24;41.53;;;9.48;;
61915;SDS011;47868;51.326;6.550;2024-01-25T02:03:50;44.65;;;9.65;;
61915;SDS011;47868;51.326;6.550;2024-01-25T02:06:16;34.67;;;9.50;;
61915;SDS011;47868;51.326;6.550;2024-01-25T02:08:42;40.55;;;10.02;;
61915;SDS011;47868;51.326;6.550;2024-01-25T02:11:11;40.42;;;9.45;;
61915;SDS011;47868;51.326;6.550;2024-01-25T02:13:37;40.88;;;9.15;;
61915;SDS011;47868;51.326;6.550;2024-01-25T02:16:04;41.83;;;9.52;;
61915;SDS011;47868;51.326;6.550;2024-01-25T02:18:30;44.15;;;9.93;;
61915;SDS011;47868;51.326;6.550;2024-01-25T02:20:56;31.90;;;9.10;;
61915;SDS011;47868;51.326;6.550;2024-01-25T02:23:22;37.22;;;9.43;;
61915;SDS011;47868;51.326;6.550;2024-01-25T02:25:48;44.47;;;9.30;;
61915;SDS011;47868;51.326;6.550;2024-01-25T02:28:14;38.10;;;9.35;;
61915;SDS011;47868;51.326;6.550;2024-01-25T02:30:40;40.58;;;9.50;;
61915;SDS011;47868;51.326;6.550;2024-01-25T02:33:06;38.00;;;9.63;;
61915;SDS011;47868;51.326;6.550;2024-01-25T02:35:32;36.35;;;8.63;;
61915;SDS011;47868;51.326;6.550;2024-01-25T02:37:58;45.72;;;9.27;;
61915;SDS011;47868;51.326;6.550;2024-01-25T02:40:24;44.28;;;9.57;;
61915;SDS011;47868;51.326;6.550;2024-01-25T02:42:50;40.25;;;9.30;;
61915;SDS011;47868;51.326;6.550;2024-01-25T02:45:16;31.75;;;8.43;;
61915;SDS011;47868;51.326;6.550;2024-01-25T02:47:42;43.10;;;9.00;;
61915;SDS011;47868;51.326;6.550;2024-01-25T02:50:09;39.28;;;8.82;;
61915;SDS011;47868;51.326;6.550;2024-01-25T02:52:35;49.60;;;9.48;;
61915;SDS011;47868;51.326;6.550;2024-01-25T02:55:01;39.10;;;9.45;;
61915;SDS011;47868;51.326;6.550;2024-01-25T02:57:27;42.13;;;9.52;;
61915;SDS011;47868;51.326;6.550;2024-01-25T02:59:53;42.58;;;9.35;;
61915;SDS011;47868;51.326;6.550;2024-01-25T03:02:19;43.80;;;9.55;;
61915;SDS011;47868;51.326;6.550;2024-01-25T03:04:45;42.45;;;9.48;;
61915;SDS011;47868;51.326;6.550;2024-01-25T03:07:11;36.33;;;9.23;;
61915;SDS011;47868;51.326;6.550;2024-01-25T03:09:37;38.67;;;9.43;;
61915;SDS011;47868;51.326;6.550;2024-01-25T03:12:03;35.92;;;10.18;;
61915;SDS011;47868;51.326;6.550;2024-01-25T03:14:30;47.95;;;10.02;;
61915;SDS011;47868;51.326;6.550;2024-01-25T03:16:56;50.50;;;10.23;;
61915;SDS011;47868;51.326;6.550;2024-01-25T03:19:25;45.28;;;9.80;;
61915;SDS011;47868;51.326;6.550;2024-01-25T03:21:51;40.30;;;9.48;;
61915;SDS011;47868;51.326;6.550;2024-01-25T03:24:17;46.05;;;10.13;;
61915;SDS011;47868;51.326;6.550;2024-01-25T03:26:43;37.55;;;8.95;;
61915;SDS011;47868;51.326;6.550;2024-01-25T03:29:09;38.35;;;9.35;;
61915;SDS011;47868;51.326;6.550;2024-01-25T03:31:35;37.20;;;8.75;;
61915;SDS011;47868;51.326;6.550;2024-01-25T03:34:02;52.55;;;11.07;;
61915;SDS011;47868;51.326;6.550;2024-01-25T03:36:28;36.67;;;9.57;;
61915;SDS011;47868;51.326;6.550;2024-01-25T03:38:54;40.90;;;9.73;;
61915;SDS011;47868;51.326;6.550;2024-01-25T03:41:20;48.45;;;9.82;;
61915;SDS011;47868;51.326;6.550;2024-01-25T03:43:48;45.28;;;9.73;;
61915;SDS011;47868;51.326;6.550;2024-01-25T03:46:14;46.25;;;9.73;;
61915;SDS011;47868;51.326;6.550;2024-01-25T03:48:40;47.25;;;9.32;;
61915;SDS011;47868;51.326;6.550;2024-01-25T03:51:06;46.92;;;9.57;;
61915;SDS011;47868;51.326;6.550;2024-01-25T03:53:32;50.47;;;9.50;;
61915;SDS011;47868;51.326;6.550;2024-01-25T03:55:58;39.45;;;9.25;;
61915;SDS011;47868;51.326;6.550;2024-01-25T03:58:24;39.20;;;9.63;;
61915;SDS011;47868;51.326;6.550;2024-01-25T04:00:50;46.25;;;9.32;;
61915;SDS011;47868;51.326;6.550;2024-01-25T04:03:16;46.50;;;10.02;;
61915;SDS011;47868;51.326;6.550;2024-01-25T04:05:42;47.38;;;9.85;;
61915;SDS011;47868;51.326;6.550;2024-01-25T04:08:08;47.22;;;9.90;;
61915;SDS011;47868;51.326;6.550;2024-01-25T04:10:34;41.92;;;9.98;;
61915;SDS011;47868;51.326;6.550;2024-01-25T04:13:00;51.50;;;10.68;;
61915;SDS011;47868;51.326;6.550;2024-01-25T04:15:27;48.35;;;10.32;;
61915;SDS011;47868;51.326;6.550;2024-01-25T04:17:54;47.22;;;9.95;;
61915;SDS011;47868;51.326;6.550;2024-01-25T04:20:21;50.67;;;10.27;;
61915;SDS011;47868;51.326;6.550;2024-01-25T04:22:47;33.40;;;9.18;;
61915;SDS011;47868;51.326;6.550;2024-01-25T04:25:13;49.45;;;11.80;;
61915;SDS011;47868;51.326;6.550;2024-01-25T04:27:39;56.72;;;11.68;;
61915;SDS011;47868;51.326;6.550;2024-01-25T04:30:06;43.33;;;9.52;;
61915;SDS011;47868;51.326;6.550;2024-01-25T04:32:32;56.63;;;10.82;;
61915;SDS011;47868;51.326;6.550;2024-01-25T04:34:58;46.55;;;9.55;;
61915;SDS011;47868;51.326;6.550;2024-01-25T04:37:24;47.83;;;9.55;;
61915;SDS011;47868;51.326;6.550;2024-01-25T04:39:50;49.20;;;9.90;;
61915;SDS011;47868;51.326;6.550;2024-01-25T04:42:16;32.10;;;9.45;;
61915;SDS011;47868;51.326;6.550;2024-01-25T04:44:42;39.92;;;8.13;;
61915;SDS011;47868;51.326;6.550;2024-01-25T04:47:08;41.90;;;9.05;;
61915;SDS011;47868;51.326;6.550;2024-01-25T04:49:34;42.08;;;9.02;;
61915;SDS011;47868;51.326;6.550;2024-01-25T04:52:00;39.85;;;9.45;;
61915;SDS011;47868;51.326;6.550;2024-01-25T04:54:26;36.50;;;9.38;;
61915;SDS011;47868;51.326;6.550;2024-01-25T04:56:53;43.00;;;9.30;;
61915;SDS011;47868;51.326;6.550;2024-01-25T04:59:19;40.45;;;9.27;;
61915;SDS011;47868;51.326;6.550;2024-01-25T05:01:45;40.00;;;8.88;;
61915;SDS011;47868;51.326;6.550;2024-01-25T05:04:11;47.60;;;9.20;;
61915;SDS011;47868;51.326;6.550;2024-01-25T05:06:37;39.50;;;10.10;;
61915;SDS011;47868;51.326;6.550;2024-01-25T05:09:06;39.50;;;9.25;;
61915;SDS011;47868;51.326;6.550;2024-01-25T05:11:37;39.20;;;8.93;;
61915;SDS011;47868;51.326;6.550;2024-01-25T05:14:06;36.70;;;9.48;;
61915;SDS011;47868;51.326;6.550;2024-01-25T05:16:32;54.55;;;10.85;;
61915;SDS011;47868;51.326;6.550;2024-01-25T05:19:00;36.20;;;9.93;;
61915;SDS011;47868;51.326;6.550;2024-01-25T05:21:26;47.08;;;9.90;;
61915;SDS011;47868;51.326;6.550;2024-01-25T05:23:52;40.40;;;10.00;;
61915;SDS011;47868;51.326;6.550;2024-01-25T05:26:20;38.47;;;9.80;;
61915;SDS011;47868;51.326;6.550;2024-01-25T05:28:46;36.88;;;10.05;;
61915;SDS011;47868;51.326;6.550;2024-01-25T05:31:12;40.13;;;9.93;;
61915;SDS011;47868;51.326;6.550;2024-01-25T05:33:39;44.83;;;9.60;;
61915;SDS011;47868;51.326;6.550;2024-01-25T05:36:05;42.38;;;10.00;;
61915;SDS011;47868;51.326;6.550;2024-01-25T05:38:31;41.85;;;10.10;;
61915;SDS011;47868;51.326;6.550;2024-01-25T05:40:58;45.53;;;11.40;;
61915;SDS011;47868;51.326;6.550;2024-01-25T05:43:24;49.67;;;10.82;;
61915;SDS011;47868;51.326;6.550;2024-01-25T05:45:52;36.47;;;9.52;;
61915;SDS011;47868;51.326;6.550;2024-01-25T05:48:18;39.35;;;9.50;;
61915;SDS011;47868;51.326;6.550;2024-01-25T05:50:44;44.22;;;9.27;;
61915;SDS011;47868;51.326;6.550;2024-01-25T05:53:10;47.22;;;10.02;;
61915;SDS011;47868;51.326;6.550;2024-01-25T05:55:36;36.88;;;9.68;;
61915;SDS011;47868;51.326;6.550;2024-01-25T05:58:02;31.73;;;8.60;;
61915;SDS011;47868;51.326;6.550;2024-01-25T06:00:28;36.90;;;8.88;;
61915;SDS011;47868;51.326;6.550;2024-01-25T06:02:54;36.55;;;8.63;;
61915;SDS011;47868;51.326;6.550;2024-01-25T06:05:20;42.67;;;9.82;;
61915;SDS011;47868;51.326;6.550;2024-01-25T06:07:46;40.20;;;10.75;;
61915;SDS011;47868;51.326;6.550;2024-01-25T06:10:14;46.13;;;10.73;;
61915;SDS011;47868;51.326;6.550;2024-01-25T06:12:40;49.22;;;10.13;;
61915;SDS011;47868;51.326;6.550;2024-01-25T06:15:06;39.20;;;10.77;;
61915;SDS011;47868;51.326;6.550;2024-01-25T06:17:33;42.67;;;9.23;;
61915;SDS011;47868;51.326;6.550;2024-01-25T06:19:59;40.20;;;9.90;;
61915;SDS011;47868;51.326;6.550;2024-01-25T06:22:25;32.75;;;9.25;;
61915;SDS011;47868;51.326;6.550;2024-01-25T06:24:51;38.60;;;9.75;;
61915;SDS011;47868;51.326;6.550;2024-01-25T06:27:17;39.40;;;9.35;;
61915;SDS011;47868;51.326;6.550;2024-01-25T06:29:43;30.75;;;9.23;;
61915;SDS011;47868;51.326;6.550;2024-01-25T06:32:12;25.90;;;8.27;;
61915;SDS011;47868;51.326;6.550;2024-01-25T06:34:38;35.47;;;9.07;;
61915;SDS011;47868;51.326;6.550;2024-01-25T06:37:04;34.70;;;9.45;;
61915;SDS011;47868;51.326;6.550;2024-01-25T06:39:30;31.45;;;8.85;;
61915;SDS011;47868;51.326;6.550;2024-01-25T06:41:57;29.65;;;8.32;;
61915;SDS011;47868;51.326;6.550;2024-01-25T06:44:23;38.17;;;9.63;;
61915;SDS011;47868;51.326;6.550;2024-01-25T06:46:49;37.60;;;9.25;;
61915;SDS011;47868;51.326;6.550;2024-01-25T06:49:15;31.30;;;9.52;;
61915;SDS011;47868;51.326;6.550;2024-01-25T06:51:41;38.35;;;10.13;;
61915;SDS011;47868;51.326;6.550;2024-01-25T06:54:07;44.63;;;10.02;;
61915;SDS011;47868;51.326;6.550;2024-01-25T06:56:34;38.53;;;9.30;;
61915;SDS011;47868;51.326;6.550;2024-01-25T06:59:00;47.97;;;9.10;;
61915;SDS011;47868;51.326;6.550;2024-01-25T07:01:26;32.58;;;8.38;;
61915;SDS011;47868;51.326;6.550;2024-01-25T07:03:53;31.27;;;8.52;;
61915;SDS011;47868;51.326;6.550;2024-01-25T07:06:19;30.58;;;8.27;;
61915;SDS011;47868;51.326;6.550;2024-01-25T07:08:45;33.60;;;8.65;;
61915;SDS011;47868;51.326;6.550;2024-01-25T07:11:12;37.72;;;8.57;;
61915;SDS011;47868;51.326;6.550;2024-01-25T07:13:38;32.47;;;8.07;;
61915;SDS011;47868;51.326;6.550;2024-01-25T07:16:04;31.00;;;8.60;;
61915;SDS011;47868;51.326;6.550;2024-01-25T07:18:30;31.60;;;8.73;;
61915;SDS011;47868;51.326;6.550;2024-01-25T07:20:58;35.30;;;9.40;;
61915;SDS011;47868;51.326;6.550;2024-01-25T07:23:24;36.40;;;10.00;;
61915;SDS011;47868;51.326;6.550;2024-01-25T07:25:51;41.17;;;10.25;;
61915;SDS011;47868;51.326;6.550;2024-01-25T07:28:20;47.75;;;9.88;;
61915;SDS011;47868;51.326;6.550;2024-01-25T07:30:47;34.35;;;9.43;;
61915;SDS011;47868;51.326;6.550;2024-01-25T07:33:14;41.67;;;9.82;;
61915;SDS011;47868;51.326;6.550;2024-01-25T07:35:40;41.53;;;10.45;;
61915;SDS011;47868;51.326;6.550;2024-01-25T07:38:11;38.72;;;10.55;;
61915;SDS011;47868;51.326;6.550;2024-01-25T07:40:36;41.05;;;10.52;;
61915;SDS011;47868;51.326;6.550;2024-01-25T07:43:03;38.00;;;10.13;;
61915;SDS011;47868;51.326;6.550;2024-01-25T07:45:29;40.05;;;10.57;;
61915;SDS011;47868;51.326;6.550;2024-01-25T07:47:55;54.80;;;11.98;;
61915;SDS011;47868;51.326;6.550;2024-01-25T07:50:21;32.83;;;9.80;;
61915;SDS011;47868;51.326;6.550;2024-01-25T07:52:47;42.53;;;11.82;;
61915;SDS011;47868;51.326;6.550;2024-01-25T07:55:14;38.90;;;10.00;;
61915;SDS011;47868;51.326;6.550;2024-01-25T07:57:40;45.35;;;9.70;;
61915;SDS011;47868;51.326;6.550;2024-01-25T08:03:00;50.05;;;12.70;;
61915;SDS011;47868;51.326;6.550;2024-01-25T08:05:26;48.95;;;12.00;;
61915;SDS011;47868;51.326;6.550;2024-01-25T08:07:52;42.15;;;11.10;;
61915;SDS011;47868;51.326;6.550;2024-01-25T08:10:18;40.85;;;11.07;;
61915;SDS011;47868;51.326;6.550;2024-01-25T08:12:44;46.55;;;10.80;;
61915;SDS011;47868;51.326;6.550;2024-01-25T08:15:12;50.35;;;11.68;;
61915;SDS011;47868;51.326;6.550;2024-01-25T08:17:39;45.33;;;11.63;;
61915;SDS011;47868;51.326;6.550;2024-01-25T08:20:05;39.13;;;11.00;;
61915;SDS011;47868;51.326;6.550;2024-01-25T08:22:32;36.97;;;10.27;;
61915;SDS011;47868;51.326;6.550;2024-01-25T08:24:59;47.03;;;11.90;;
61915;SDS011;47868;51.326;6.550;2024-01-25T08:27:25;51.20;;;12.65;;
61915;SDS011;47868;51.326;6.550;2024-01-25T08:29:51;42.35;;;12.00;;
61915;SDS011;47868;51.326;6.550;2024-01-25T08:32:17;46.72;;;12.55;;
61915;SDS011;47868;51.326;6.550;2024-01-25T08:34:43;46.58;;;11.70;;
61915;SDS011;47868;51.326;6.550;2024-01-25T08:37:09;40.15;;;12.35;;
61915;SDS011;47868;51.326;6.550;2024-01-25T08:39:35;43.72;;;12.00;;
61915;SDS011;47868;51.326;6.550;2024-01-25T08:42:01;50.20;;;12.30;;
61915;SDS011;47868;51.326;6.550;2024-01-25T08:44:31;42.05;;;13.88;;
61915;SDS011;47868;51.326;6.550;2024-01-25T08:46:57;52.03;;;13.95;;
61915;SDS011;47868;51.326;6.550;2024-01-25T08:49:23;47.03;;;14.48;;
61915;SDS011;47868;51.326;6.550;2024-01-25T08:51:49;48.55;;;14.50;;
61915;SDS011;47868;51.326;6.550;2024-01-25T08:54:15;46.20;;;14.63;;
61915;SDS011;47868;51.326;6.550;2024-01-25T08:56:41;61.33;;;17.65;;
61915;SDS011;47868;51.326;6.550;2024-01-25T08:59:07;57.13;;;17.23;;
61915;SDS011;47868;51.326;6.550;2024-01-25T09:01:33;52.42;;;16.98;;
61915;SDS011;47868;51.326;6.550;2024-01-25T09:03:59;51.47;;;19.17;;
61915;SDS011;47868;51.326;6.550;2024-01-25T09:06:28;52.30;;;19.65;;
61915;SDS011;47868;51.326;6.550;2024-01-25T09:08:54;51.03;;;19.88;;
61915;SDS011;47868;51.326;6.550;2024-01-25T09:11:21;55.80;;;20.15;;
61915;SDS011;47868;51.326;6.550;2024-01-25T09:13:47;54.53;;;19.23;;
61915;SDS011;47868;51.326;6.550;2024-01-25T09:16:13;66.22;;;21.38;;
61915;SDS011;47868;51.326;6.550;2024-01-25T09:18:40;56.15;;;20.13;;
61915;SDS011;47868;51.326;6.550;2024-01-25T09:21:06;60.75;;;20.40;;
61915;SDS011;47868;51.326;6.550;2024-01-25T09:23:32;63.30;;;21.88;;
61915;SDS011;47868;51.326;6.550;2024-01-25T09:25:58;54.60;;;19.48;;
61915;SDS011;47868;51.326;6.550;2024-01-25T09:28:24;53.47;;;19.25;;
61915;SDS011;47868;51.326;6.550;2024-01-25T09:30:53;58.97;;;19.25;;
61915;SDS011;47868;51.326;6.550;2024-01-25T09:33:19;51.08;;;20.70;;
61915;SDS011;47868;51.326;6.550;2024-01-25T09:35:45;50.38;;;18.92;;
61915;SDS011;47868;51.326;6.550;2024-01-25T09:38:12;49.33;;;20.40;;
61915;SDS011;47868;51.326;6.550;2024-01-25T09:40:38;51.92;;;20.38;;
61915;SDS011;47868;51.326;6.550;2024-01-25T09:43:04;51.00;;;19.77;;
61915;SDS011;47868;51.326;6.550;2024-01-25T09:45:31;53.20;;;19.73;;
61915;SDS011;47868;51.326;6.550;2024-01-25T09:48:00;49.92;;;19.20;;
61915;SDS011;47868;51.326;6.550;2024-01-25T09:50:29;47.10;;;19.98;;
61915;SDS011;47868;51.326;6.550;2024-01-25T09:52:58;43.63;;;20.02;;
61915;SDS011;47868;51.326;6.550;2024-01-25T09:55:25;51.88;;;21.23;;
61915;SDS011;47868;51.326;6.550;2024-01-25T09:57:53;58.22;;;23.05;;
61915;SDS011;47868;51.326;6.550;2024-01-25T10:00:20;53.25;;;21.30;;
61915;SDS011;47868;51.326;6.550;2024-01-25T10:02:47;50.45;;;21.08;;
61915;SDS011;47868;51.326;6.550;2024-01-25T10:05:14;48.03;;;19.65;;
61915;SDS011;47868;51.326;6.550;2024-01-25T10:07:41;56.65;;;21.77;;
61915;SDS011;47868;51.326;6.550;2024-01-25T10:10:10;58.78;;;20.10;;
61915;SDS011;47868;51.326;6.550;2024-01-25T10:12:37;55.35;;;20.60;;
61915;SDS011;47868;51.326;6.550;2024-01-25T10:15:03;49.00;;;20.17;;
61915;SDS011;47868;51.326;6.550;2024-01-25T10:17:29;55.80;;;20.67;;
61915;SDS011;47868;51.326;6.550;2024-01-25T10:19:56;53.05;;;21.40;;
61915;SDS011;47868;51.326;6.550;2024-01-25T10:22:22;63.42;;;20.30;;
61915;SDS011;47868;51.326;6.550;2024-01-25T10:24:48;59.38;;;20.85;;
61915;SDS011;47868;51.326;6.550;2024-01-25T10:27:15;52.00;;;19.50;;
61915;SDS011;47868;51.326;6.550;2024-01-25T10:29:41;51.22;;;19.42;;
61915;SDS011;47868;51.326;6.550;2024-01-25T10:32:08;50.28;;;18.95;;
61915;SDS011;47868;51.326;6.550;2024-01-25T10:34:35;55.97;;;19.42;;
61915;SDS011;47868;51.326;6.550;2024-01-25T10:37:02;57.40;;;19.45;;
61915;SDS011;47868;51.326;6.550;2024-01-25T10:39:29;65.57;;;18.25;;
61915;SDS011;47868;51.326;6.550;2024-01-25T10:41:56;57.50;;;18.67;;
61915;SDS011;47868;51.326;6.550;2024-01-25T10:44:22;49.28;;;17.90;;
61915;SDS011;47868;51.326;6.550;2024-01-25T10:46:48;48.90;;;18.48;;
61915;SDS011;47868;51.326;6.550;2024-01-25T10:49:14;46.40;;;16.88;;
61915;SDS011;47868;51.326;6.550;2024-01-25T10:51:41;55.10;;;17.35;;
61915;SDS011;47868;51.326;6.550;2024-01-25T10:54:07;58.97;;;18.17;;
61915;SDS011;47868;51.326;6.550;2024-01-25T10:56:37;46.38;;;18.13;;
61915;SDS011;47868;51.326;6.550;2024-01-25T10:59:03;63.45;;;18.73;;
61915;SDS011;47868;51.326;6.550;2024-01-25T11:01:31;53.20;;;18.88;;
61915;SDS011;47868;51.326;6.550;2024-01-25T11:03:59;44.35;;;17.20;;
61915;SDS011;47868;51.326;6.550;2024-01-25T11:06:26;46.70;;;17.73;;
61915;SDS011;47868;51.326;6.550;2024-01-25T11:09:03;49.63;;;18.15;;
61915;SDS011;47868;51.326;6.550;2024-01-25T11:11:29;65.43;;;18.77;;
61915;SDS011;47868;51.326;6.550;2024-01-25T11:13:56;49.38;;;18.38;;
61915;SDS011;47868;51.326;6.550;2024-01-25T11:16:29;54.85;;;18.98;;
61915;SDS011;47868;51.326;6.550;2024-01-25T11:18:57;60.63;;;20.15;;
61915;SDS011;47868;51.326;6.550;2024-01-25T11:21:39;55.25;;;19.77;;
61915;SDS011;47868;51.326;6.550;2024-01-25T11:24:11;51.58;;;19.23;;
61915;SDS011;47868;51.326;6.550;2024-01-25T11:26:37;48.03;;;19.25;;
61915;SDS011;47868;51.326;6.550;2024-01-25T11:29:03;55.65;;;20.35;;
61915;SDS011;47868;51.326;6.550;2024-01-25T11:31:30;55.67;;;19.83;;
61915;SDS011;47868;51.326;6.550;2024-01-25T11:33:58;50.08;;;19.30;;
61915;SDS011;47868;51.326;6.550;2024-01-25T11:36:27;49.35;;;17.88;;
61915;SDS011;47868;51.326;6.550;2024-01-25T11:38:53;46.80;;;18.83;;
61915;SDS011;47868;51.326;6.550;2024-01-25T11:41:20;48.65;;;18.23;;
61915;SDS011;47868;51.326;6.550;2024-01-25T11:43:49;50.90;;;18.52;;
61915;SDS011;47868;51.326;6.550;2024-01-25T11:46:16;48.88;;;17.88;;
61915;SDS011;47868;51.326;6.550;2024-01-25T11:48:42;49.45;;;17.58;;
61915;SDS011;47868;51.326;6.550;2024-01-25T11:51:11;58.28;;;19.05;;
61915;SDS011;47868;51.326;6.550;2024-01-25T11:53:37;55.85;;;17.63;;
61915;SDS011;47868;51.326;6.550;2024-01-25T11:56:07;52.55;;;17.30;;
61915;SDS011;47868;51.326;6.550;2024-01-25T11:58:34;49.95;;;17.48;;
61915;SDS011;47868;51.326;6.550;2024-01-25T12:01:02;55.90;;;18.48;;
61915;SDS011;47868;51.326;6.550;2024-01-25T12:03:30;47.55;;;17.58;;
61915;SDS011;47868;51.326;6.550;2024-01-25T12:05:56;44.45;;;17.67;;
61915;SDS011;47868;51.326;6.550;2024-01-25T12:08:24;43.50;;;17.60;;
61915;SDS011;47868;51.326;6.550;2024-01-25T12:10:50;44.40;;;16.70;;
61915;SDS011;47868;51.326;6.550;2024-01-25T12:13:16;50.75;;;19.02;;
61915;SDS011;47868;51.326;6.550;2024-01-25T12:15:42;44.75;;;17.20;;
61915;SDS011;47868;51.326;6.550;2024-01-25T12:18:08;44.85;;;17.50;;
61915;SDS011;47868;51.326;6.550;2024-01-25T12:20:35;49.53;;;18.67;;
61915;SDS011;47868;51.326;6.550;2024-01-25T12:23:01;47.95;;;18.00;;
61915;SDS011;47868;51.326;6.550;2024-01-25T12:25:27;47.75;;;18.58;;
61915;SDS011;47868;51.326;6.550;2024-01-25T12:27:53;52.67;;;20.73;;
61915;SDS011;47868;51.326;6.550;2024-01-25T12:30:19;48.50;;;20.30;;
61915;SDS011;47868;51.326;6.550;2024-01-25T12:32:47;53.30;;;19.50;;
61915;SDS011;47868;51.326;6.550;2024-01-25T12:35:14;51.08;;;20.45;;
61915;SDS011;47868;51.326;6.550;2024-01-25T12:37:40;49.42;;;20.88;;
61915;SDS011;47868;51.326;6.550;2024-01-25T12:40:06;56.08;;;21.98;;
61915;SDS011;47868;51.326;6.550;2024-01-25T12:42:32;52.85;;;21.00;;
61915;SDS011;47868;51.326;6.550;2024-01-25T12:44:58;51.33;;;20.00;;
61915;SDS011;47868;51.326;6.550;2024-01-25T12:47:24;54.85;;;20.73;;
61915;SDS011;47868;51.326;6.550;2024-01-25T12:49:50;53.28;;;22.00;;
61915;SDS011;47868;51.326;6.550;2024-01-25T12:52:16;53.03;;;21.13;;
61915;SDS011;47868;51.326;6.550;2024-01-25T12:54:43;51.97;;;21.13;;
61915;SDS011;47868;51.326;6.550;2024-01-25T12:57:09;54.30;;;20.67;;
61915;SDS011;47868;51.326;6.550;2024-01-25T12:59:35;54.38;;;20.35;;
61915;SDS011;47868;51.326;6.550;2024-01-25T13:02:02;49.70;;;20.45;;
61915;SDS011;47868;51.326;6.550;2024-01-25T13:04:29;54.17;;;20.48;;
61915;SDS011;47868;51.326;6.550;2024-01-25T13:06:55;53.28;;;20.92;;
61915;SDS011;47868;51.326;6.550;2024-01-25T13:09:24;50.85;;;20.70;;
61915;SDS011;47868;51.326;6.550;2024-01-25T13:11:50;59.03;;;21.15;;
61915;SDS011;47868;51.326;6.550;2024-01-25T13:14:17;51.45;;;20.50;;
61915;SDS011;47868;51.326;6.550;2024-01-25T13:16:43;56.83;;;21.13;;
61915;SDS011;47868;51.326;6.550;2024-01-25T13:19:09;54.45;;;19.35;;
61915;SDS011;47868;51.326;6.550;2024-01-25T13:21:36;50.95;;;20.80;;
61915;SDS011;47868;51.326;6.550;2024-01-25T13:24:03;47.42;;;20.25;;
61915;SDS011;47868;51.326;6.550;2024-01-25T13:26:29;53.63;;;20.77;;
61915;SDS011;47868;51.326;6.550;2024-01-25T13:28:55;53.22;;;20.27;;
61915;SDS011;47868;51.326;6.550;2024-01-25T13:31:21;45.40;;;20.05;;
61915;SDS011;47868;51.326;6.550;2024-01-25T13:33:47;49.92;;;17.95;;
61915;SDS011;47868;51.326;6.550;2024-01-25T13:36:13;49.97;;;17.90;;
61915;SDS011;47868;51.326;6.550;2024-01-25T13:38:39;52.50;;;18.77;;
61915;SDS011;47868;51.326;6.550;2024-01-25T13:41:05;53.88;;;18.48;;
61915;SDS011;47868;51.326;6.550;2024-01-25T13:43:32;45.58;;;16.83;;
61915;SDS011;47868;51.326;6.550;2024-01-25T13:45:57;47.80;;;17.33;;
61915;SDS011;47868;51.326;6.550;2024-01-25T13:48:23;47.45;;;17.00;;
61915;SDS011;47868;51.326;6.550;2024-01-25T13:50:49;44.53;;;17.10;;
61915;SDS011;47868;51.326;6.550;2024-01-25T13:53:15;46.10;;;16.52;;
61915;SDS011;47868;51.326;6.550;2024-01-25T13:55:42;49.67;;;16.65;;
61915;SDS011;47868;51.326;6.550;2024-01-25T13:58:08;47.20;;;16.42;;
61915;SDS011;47868;51.326;6.550;2024-01-25T14:00:34;47.50;;;15.85;;
61915;SDS011;47868;51.326;6.550;2024-01-25T14:03:00;51.70;;;16.15;;
61915;SDS011;47868;51.326;6.550;2024-01-25T14:05:26;44.00;;;14.93;;
61915;SDS011;47868;51.326;6.550;2024-01-25T14:07:52;50.58;;;15.38;;
61915;SDS011;47868;51.326;6.550;2024-01-25T14:10:18;45.15;;;15.77;;
61915;SDS011;47868;51.326;6.550;2024-01-25T14:12:45;41.17;;;15.85;;
61915;SDS011;47868;51.326;6.550;2024-01-25T14:15:11;41.50;;;14.02;;
61915;SDS011;47868;51.326;6.550;2024-01-25T14:17:37;53.90;;;15.40;;
61915;SDS011;47868;51.326;6.550;2024-01-25T14:20:04;50.42;;;14.65;;
61915;SDS011;47868;51.326;6.550;2024-01-25T14:22:30;42.55;;;13.55;;
61915;SDS011;47868;51.326;6.550;2024-01-25T14:24:58;52.60;;;15.55;;